createdAt,value
2022-12-18T00:01:19.720Z,-3.71
2022-12-18T00:06:24.513Z,-3.89
2022-12-18T00:11:30.443Z,-3.82
2022-12-18T00:16:37.873Z,-3.92
2022-12-18T00:21:41.685Z,-3.91
2022-12-18T00:26:45.684Z,-4.00
2022-12-18T00:31:50.938Z,-3.96
2022-12-18T00:36:54.711Z,-4.10
2022-12-18T00:42:16.545Z,-4.02
2022-12-18T00:47:21.563Z,-4.19
2022-12-18T00:52:25.413Z,-4.07
2022-12-18T00:57:29.798Z,-4.11
2022-12-18T01:02:35.116Z,-4.20
2022-12-18T01:07:39.637Z,-4.16
2022-12-18T01:12:43.829Z,-4.14
2022-12-18T01:17:49.188Z,-4.15
2022-12-18T01:22:52.909Z,-4.14
2022-12-18T01:27:56.759Z,-4.18
2022-12-18T01:33:03.309Z,-4.34
2022-12-18T01:38:07.906Z,-4.37
2022-12-18T01:43:11.584Z,-4.45
2022-12-18T01:48:16.948Z,-4.41
2022-12-18T01:53:24.410Z,-4.39
2022-12-18T01:58:41.587Z,-4.39
2022-12-18T02:03:47.414Z,-4.37
2022-12-18T02:09:04.692Z,-4.37
2022-12-18T02:14:20.091Z,-4.39
2022-12-18T02:19:50.321Z,-4.46
2022-12-18T02:25:06.914Z,-4.45
2022-12-18T02:30:12.867Z,-4.63
2022-12-18T02:35:22.770Z,-4.66
2022-12-18T02:40:30.368Z,-4.62
2022-12-18T02:45:37.027Z,-4.55
2022-12-18T02:50:54.202Z,-4.57
2022-12-18T02:56:07.312Z,-4.56
2022-12-18T03:01:20.896Z,-4.57
2022-12-18T03:06:30.056Z,-4.58
2022-12-18T03:11:56.183Z,-4.59
2022-12-18T03:17:04.749Z,-4.64
2022-12-18T03:22:09.915Z,-4.67
2022-12-18T03:27:21.869Z,-4.75
2022-12-18T03:32:31.526Z,-4.76
2022-12-18T03:37:36.296Z,-4.80
2022-12-18T03:42:47.753Z,-4.84
2022-12-18T03:48:02.084Z,-4.88
2022-12-18T03:53:18.915Z,-4.98
2022-12-18T03:58:27.828Z,-4.96
2022-12-18T04:03:36.499Z,-5.01
2022-12-18T04:08:41.561Z,-5.08
2022-12-18T04:13:46.596Z,-5.11
2022-12-18T04:18:52.469Z,-5.15
2022-12-18T04:23:56.782Z,-5.13
2022-12-18T04:29:00.589Z,-5.11
2022-12-18T04:34:06.449Z,-5.15
2022-12-18T04:39:12.378Z,-5.20
2022-12-18T04:44:16.207Z,-5.25
2022-12-18T04:49:21.793Z,-5.23
2022-12-18T04:54:25.519Z,-5.28
2022-12-18T04:59:29.415Z,-5.25
2022-12-18T05:04:34.716Z,-5.25
2022-12-18T05:09:38.716Z,-5.29
2022-12-18T05:14:42.387Z,-5.20
2022-12-18T05:19:47.425Z,-5.23
2022-12-18T05:24:51.106Z,-5.33
2022-12-18T05:29:54.804Z,-5.30
2022-12-18T05:34:59.872Z,-5.37
2022-12-18T05:40:04.451Z,-5.43
2022-12-18T05:45:09.135Z,-5.46
2022-12-18T05:50:14.160Z,-5.59
2022-12-18T05:55:18.129Z,-5.59
2022-12-18T06:00:21.927Z,-5.64
2022-12-18T06:05:27.141Z,-5.57
2022-12-18T06:10:30.935Z,-5.59
2022-12-18T06:15:37.868Z,-5.71
2022-12-18T06:20:43.143Z,-5.65
2022-12-18T06:25:46.803Z,-5.72
2022-12-18T06:30:51.379Z,-5.65
2022-12-18T06:36:00.997Z,-5.59
2022-12-18T06:41:08.838Z,-5.64
2022-12-18T06:46:12.741Z,-5.66
2022-12-18T06:51:20.359Z,-5.69
2022-12-18T06:56:24.093Z,-5.65
2022-12-18T07:01:27.943Z,-5.66
2022-12-18T07:06:33.287Z,-5.62
2022-12-18T07:11:37.019Z,-5.67
2022-12-18T07:16:41.723Z,-5.72
2022-12-18T07:21:46.825Z,-5.75
2022-12-18T07:26:50.896Z,-5.76
2022-12-18T07:31:54.647Z,-5.72
2022-12-18T07:36:59.996Z,-5.70
2022-12-18T07:42:21.252Z,-5.82
2022-12-18T07:47:26.184Z,-5.75
2022-12-18T07:52:32.245Z,-5.79
2022-12-18T07:57:56.393Z,-5.83
2022-12-18T08:03:00.700Z,-5.79
2022-12-18T08:08:05.919Z,-5.89
2022-12-18T08:13:09.592Z,-5.80
2022-12-18T08:18:14.565Z,-5.68
2022-12-18T08:23:19.955Z,-5.63
2022-12-18T08:28:23.777Z,-5.56
2022-12-18T08:33:28.311Z,-5.47
2022-12-18T08:38:33.961Z,-5.33
2022-12-18T08:43:57.827Z,-5.36
2022-12-18T08:49:01.780Z,-5.27
2022-12-18T08:54:08.413Z,-5.16
2022-12-18T08:59:17.563Z,-5.09
2022-12-18T09:04:23.808Z,-4.90
2022-12-18T09:09:28.967Z,-4.81
2022-12-18T09:14:32.648Z,-4.66
2022-12-18T09:19:36.382Z,-4.65
2022-12-18T09:24:41.566Z,-4.50
2022-12-18T09:29:45.375Z,-4.46
2022-12-18T09:34:49.159Z,-4.45
2022-12-18T09:39:54.272Z,-4.31
2022-12-18T09:44:58.290Z,-4.27
2022-12-18T09:50:06.223Z,-4.11
2022-12-18T09:55:26.525Z,-3.98
2022-12-18T10:00:30.411Z,-3.90
2022-12-18T10:05:40.313Z,-3.75
2022-12-18T10:10:50.761Z,-3.76
2022-12-18T10:16:05.070Z,-3.66
2022-12-18T10:21:15.029Z,-3.51
2022-12-18T10:26:20.090Z,-3.48
2022-12-18T10:31:26.561Z,-3.44
2022-12-18T10:36:30.963Z,-3.22
2022-12-18T10:41:36.049Z,-3.14
2022-12-18T10:46:40.120Z,-3.25
2022-12-18T10:51:44.221Z,-3.01
2022-12-18T10:56:49.537Z,-3.07
2022-12-18T11:01:56.022Z,-3.06
2022-12-18T11:07:02.454Z,-3.12
2022-12-18T11:12:18.639Z,-2.99
2022-12-18T11:17:26.502Z,-2.94
2022-12-18T11:22:32.773Z,-2.78
2022-12-18T11:27:37.993Z,-2.71
2022-12-18T11:32:45.359Z,-2.66
2022-12-18T11:37:52.608Z,-2.65
2022-12-18T11:43:06.517Z,-2.43
2022-12-18T11:48:18.921Z,-2.35
2022-12-18T11:53:23.143Z,-2.35
2022-12-18T11:58:43.799Z,-2.33
2022-12-18T12:04:07.747Z,-2.24
2022-12-18T12:09:22.292Z,-2.14
2022-12-18T12:14:43.990Z,-2.09
2022-12-18T12:19:55.490Z,-2.16
2022-12-18T12:25:09.951Z,-2.07
2022-12-18T12:30:22.141Z,-1.94
2022-12-18T12:35:37.278Z,-1.90
2022-12-18T12:40:53.932Z,-1.94
2022-12-18T12:46:07.737Z,-1.94
2022-12-18T12:51:17.693Z,-1.98
2022-12-18T12:56:23.427Z,-1.86
2022-12-18T13:01:36.313Z,-1.83
2022-12-18T13:06:48.007Z,-1.83
2022-12-18T13:12:09.633Z,-1.87
2022-12-18T13:17:36.490Z,-1.82
2022-12-18T13:22:42.880Z,-1.79
2022-12-18T13:28:06.614Z,-1.74
2022-12-18T13:33:56.371Z,-1.71
2022-12-18T13:39:28.901Z,-1.76
2022-12-18T13:44:41.592Z,-1.69
2022-12-18T13:49:48.821Z,-1.63
2022-12-18T13:54:54.516Z,-1.62
2022-12-18T14:00:00.287Z,-1.65
2022-12-18T14:05:06.658Z,-1.54
2022-12-18T14:15:43.770Z,-1.52
2022-12-18T14:20:53.177Z,-1.49
2022-12-18T14:26:00.773Z,-1.48
2022-12-18T14:31:20.367Z,-1.56
2022-12-18T14:36:27.143Z,-1.53
2022-12-18T14:41:30.939Z,-1.49
2022-12-18T14:46:37.042Z,-1.45
2022-12-18T14:51:50.423Z,-1.47
2022-12-18T14:57:00.905Z,-1.36
2022-12-18T15:02:14.532Z,-1.35
2022-12-18T15:07:21.854Z,-1.39
2022-12-18T15:12:35.241Z,-1.44
2022-12-18T15:17:39.232Z,-1.43
2022-12-18T15:22:44.361Z,-1.41
2022-12-18T15:27:49.197Z,-1.40
2022-12-18T15:32:55.518Z,-1.38
2022-12-18T15:38:00.612Z,-1.38
2022-12-18T15:43:24.657Z,-1.33
2022-12-18T15:48:28.500Z,-1.30
2022-12-18T15:53:35.560Z,-1.30
2022-12-18T15:58:39.282Z,-1.31
2022-12-18T16:03:43.326Z,-1.24
2022-12-18T16:08:48.887Z,-1.35
2022-12-18T16:13:52.575Z,-1.30
2022-12-18T16:18:56.292Z,-1.27
2022-12-18T16:24:01.346Z,-1.31
2022-12-18T16:29:05.061Z,-1.20
2022-12-18T16:34:12.491Z,-1.18
2022-12-18T16:39:17.821Z,-1.17
2022-12-18T16:44:22.490Z,-1.19
2022-12-18T16:49:26.182Z,-1.17
2022-12-18T16:54:31.462Z,-1.12
2022-12-18T16:59:35.435Z,-1.05
2022-12-18T17:04:39.899Z,-1.03
2022-12-18T17:09:45.091Z,-1.02
2022-12-18T17:14:49.120Z,-0.96
2022-12-18T17:19:53.342Z,-0.93
2022-12-18T17:24:58.719Z,-0.91
2022-12-18T17:30:02.436Z,-0.86
2022-12-18T17:35:07.461Z,-0.84
2022-12-18T17:40:13.505Z,-0.83
2022-12-18T17:45:17.311Z,-0.80
2022-12-18T17:50:21.185Z,-0.81
2022-12-18T17:55:26.560Z,-0.72
2022-12-18T18:00:30.572Z,-0.68
2022-12-18T18:05:34.375Z,-0.72
2022-12-18T18:10:40.490Z,-0.69
2022-12-18T18:15:44.280Z,-0.69
2022-12-18T18:20:48.028Z,-0.60
2022-12-18T18:25:53.265Z,-0.57
2022-12-18T18:30:57.567Z,-0.56
2022-12-18T18:36:01.548Z,-0.52
2022-12-18T18:41:07.511Z,-0.51
2022-12-18T18:46:13.864Z,-0.45
2022-12-18T18:51:21.734Z,-0.37
2022-12-18T18:56:56.437Z,-0.37
2022-12-18T19:01:52.728Z,-0.38
2022-12-18T19:06:56.785Z,-0.38
2022-12-18T19:12:19.902Z,-0.40
2022-12-18T19:17:28.066Z,-0.41
2022-12-18T19:22:33.583Z,-0.41
2022-12-18T19:27:40.255Z,-0.39
2022-12-18T19:32:43.984Z,-0.45
2022-12-18T19:37:47.747Z,-0.39
2022-12-18T19:42:52.876Z,-0.44
2022-12-18T19:48:01.094Z,-0.42
2022-12-18T19:53:08.531Z,-0.44
2022-12-18T19:58:14.992Z,-0.43
2022-12-18T20:03:28.719Z,-0.40
2022-12-18T20:08:35.739Z,-0.36
2022-12-18T20:13:41.068Z,-0.39
2022-12-18T20:18:45.411Z,-0.41
2022-12-18T20:23:49.442Z,-0.46
2022-12-18T20:28:55.344Z,-0.39
2022-12-18T20:34:01.598Z,-0.37
2022-12-18T20:39:08.974Z,-0.34
2022-12-18T20:44:23.539Z,-0.35
2022-12-18T20:49:28.585Z,-0.32
2022-12-18T20:54:32.358Z,-0.31
2022-12-18T20:59:37.411Z,-0.32
2022-12-18T21:04:41.077Z,-0.28
2022-12-18T21:09:44.895Z,-0.29
2022-12-18T21:14:50.109Z,-0.31
2022-12-18T21:19:54.466Z,-0.24
2022-12-18T21:24:58.802Z,-0.23
2022-12-18T21:30:04.202Z,-0.24
2022-12-18T21:35:08.780Z,-0.20
2022-12-18T21:40:14.551Z,-0.21
2022-12-18T21:45:19.752Z,-0.22
2022-12-18T21:50:23.470Z,-0.20
2022-12-18T21:55:27.334Z,-0.15
2022-12-18T22:00:32.403Z,-0.10
2022-12-18T22:05:36.137Z,-0.09
2022-12-18T22:10:40.023Z,-0.09
2022-12-18T22:15:45.228Z,-0.07
2022-12-18T22:20:49.085Z,-0.06
2022-12-18T22:25:52.762Z,0.03
2022-12-18T22:30:59.302Z,0.05
2022-12-18T22:36:06.604Z,0.07
2022-12-18T22:41:10.581Z,0.13
2022-12-18T22:46:17.142Z,0.16
2022-12-18T22:51:21.249Z,0.21
2022-12-18T22:56:25.394Z,0.22
2022-12-18T23:01:31.875Z,0.28
2022-12-18T23:06:41.073Z,0.36
2022-12-18T23:11:45.023Z,0.36
2022-12-18T23:16:50.790Z,0.35
2022-12-18T23:21:58.195Z,0.38
2022-12-18T23:27:01.970Z,0.38
2022-12-18T23:32:09.955Z,0.41
2022-12-18T23:37:24.959Z,0.43
2022-12-18T23:42:37.480Z,0.49
2022-12-18T23:47:42.543Z,0.56
2022-12-18T23:52:46.290Z,0.63
2022-12-18T23:57:49.986Z,0.70
